Time;durP1;ratioP1;P1;durP2;ratioP2;P2;SDS_P1;SDS_P2;PMS_P1;PMS_P2;Temp;Humidity;BMP_temperature;BMP_pressure;BME280_temperature;BME280_humidity;BME280_pressure;Samples;Min_cycle;Max_cycle;Signal;HPM_P1;HPM_P2
2023/01/19 00:00:46;;;;;;;57.00;29.85;;;;;;;1.42;100.00;98984.15;1711371;83;25635;-41
2023/01/19 00:03:17;;;;;;;54.45;28.77;;;;;;;1.35;100.00;98987.14;1711457;83;25641;-40
2023/01/19 00:05:45;;;;;;;53.35;30.65;;;;;;;1.41;100.00;99010.52;1711596;83;27415;-41
2023/01/19 00:08:14;;;;;;;58.23;30.97;;;;;;;1.40;100.00;99031.05;1710649;83;26009;-42
2023/01/19 00:10:50;;;;;;;52.95;29.65;;;;;;;1.39;100.00;99038.00;1710373;83;25988;-42
2023/01/19 00:13:16;;;;;;;52.40;29.30;;;;;;;1.38;100.00;99043.87;1682299;83;25487;-43
2023/01/19 00:15:45;;;;;;;52.75;29.92;;;;;;;1.40;100.00;99050.25;1711541;83;25411;-43
2023/01/19 00:18:11;;;;;;;53.55;29.85;;;;;;;1.38;100.00;99043.05;1711441;83;29656;-44
2023/01/19 00:20:40;;;;;;;53.13;29.92;;;;;;;1.37;100.00;99042.27;1711340;83;25554;-44
2023/01/19 00:23:08;;;;;;;54.05;29.23;;;;;;;1.41;100.00;99045.17;1711484;83;25571;-43
2023/01/19 00:25:41;;;;;;;54.25;29.02;;;;;;;1.41;100.00;99051.28;1711318;83;26471;-42
2023/01/19 00:28:05;;;;;;;55.73;29.70;;;;;;;1.43;100.00;99047.01;1710997;83;25612;-42
2023/01/19 00:30:33;;;;;;;55.92;29.63;;;;;;;1.45;100.00;99053.66;1711456;83;27415;-42
2023/01/19 00:32:59;;;;;;;59.85;30.82;;;;;;;1.46;100.00;99060.59;1711347;83;25883;-43
2023/01/19 00:35:28;;;;;;;56.55;29.95;;;;;;;1.47;100.00;99068.83;1711464;83;25384;-43
2023/01/19 00:38:02;;;;;;;56.68;30.75;;;;;;;1.48;100.00;99073.10;1711523;83;25626;-42
2023/01/19 00:40:30;;;;;;;51.63;29.30;;;;;;;1.52;100.00;99084.00;1711635;83;25403;-43
2023/01/19 00:42:59;;;;;;;55.98;30.57;;;;;;;1.52;100.00;99089.33;1711534;83;27419;-42
2023/01/19 00:45:26;;;;;;;54.90;30.43;;;;;;;1.53;100.00;99088.78;1711389;83;25552;-43
2023/01/19 00:47:58;;;;;;;56.60;30.43;;;;;;;1.52;100.00;99093.33;1711431;83;25572;-42
2023/01/19 00:50:29;;;;;;;57.98;30.52;;;;;;;1.53;100.00;99102.11;1711400;83;25678;-42
2023/01/19 00:52:59;;;;;;;56.35;29.00;;;;;;;1.52;100.00;99095.99;1711542;83;25209;-42
2023/01/19 00:55:29;;;;;;;51.80;29.57;;;;;;;1.52;100.00;99098.66;1711486;83;27388;-44
2023/01/19 00:57:58;;;;;;;56.10;30.52;;;;;;;1.53;100.00;99100.23;1711388;83;25448;-46
2023/01/19 01:00:26;;;;;;;57.93;31.48;;;;;;;1.55;100.00;99089.30;1711488;83;25620;-44
2023/01/19 01:02:54;;;;;;;60.95;30.62;;;;;;;1.54;100.00;99071.73;1711315;83;25678;-44
2023/01/19 01:05:23;;;;;;;53.90;29.60;;;;;;;1.57;100.00;99072.51;1711487;83;25403;-42
2023/01/19 01:07:51;;;;;;;60.25;30.52;;;;;;;1.56;100.00;99070.36;1711460;83;28189;-42
2023/01/19 01:10:22;;;;;;;56.73;29.32;;;;;;;1.59;100.00;99075.69;1711398;83;25907;-42
2023/01/19 01:12:50;;;;;;;51.10;29.45;;;;;;;1.60;100.00;99071.41;1711506;83;25619;-43
2023/01/19 01:15:19;;;;;;;55.33;29.95;;;;;;;1.62;100.00;99065.80;1711368;83;26366;-42
2023/01/19 01:17:47;;;;;;;53.73;29.92;;;;;;;1.64;100.00;99063.10;1711433;83;25550;-43
2023/01/19 01:20:26;;;;;;;53.85;29.60;;;;;;;1.65;100.00;99066.04;1711437;83;27120;-42
2023/01/19 01:22:56;;;;;;;66.05;29.12;;;;;;;1.66;100.00;99066.28;1711303;83;25463;-41
2023/01/19 01:25:27;;;;;;;55.70;29.52;;;;;;;1.67;100.00;99057.77;1711633;83;25550;-41
2023/01/19 01:27:56;;;;;;;55.92;30.50;;;;;;;1.66;100.00;99053.50;1711382;83;25625;-42
2023/01/19 01:30:24;;;;;;;52.13;28.23;;;;;;;1.65;100.00;99061.22;1682102;83;25500;-42
2023/01/19 01:32:50;;;;;;;49.30;27.87;;;;;;;1.63;100.00;99058.05;1682177;83;27004;-43
2023/01/19 01:35:18;;;;;;;51.73;28.02;;;;;;;1.60;100.00;99062.59;1711357;83;25567;-42
2023/01/19 01:37:44;;;;;;;50.75;27.80;;;;;;;1.59;100.00;99065.81;1711419;83;25561;-42
2023/01/19 01:40:16;;;;;;;54.50;28.47;;;;;;;1.56;100.00;99054.91;1711474;83;25591;-42
2023/01/19 01:42:45;;;;;;;50.90;28.30;;;;;;;1.55;100.00;99053.31;1711521;83;25580;-42
2023/01/19 01:45:40;;;;;;;49.55;27.67;;;;;;;1.52;100.00;99048.56;1711545;83;27407;-42
2023/01/19 01:48:27;;;;;;;50.38;27.87;;;;;;;1.51;100.00;99053.08;1711520;83;25913;-43
2023/01/19 01:53:53;;;;;;;52.93;28.02;;;;;;;1.51;100.00;99049.08;1711583;83;25704;-42
2023/01/19 01:56:25;;;;;;;55.73;28.57;;;;;;;1.52;100.00;99055.23;1687683;83;25545;-42
2023/01/19 01:58:51;;;;;;;55.40;29.45;;;;;;;1.48;100.00;99050.45;1711535;83;29437;-41
2023/01/19 02:04:06;;;;;;;53.13;29.00;;;;;;;1.48;100.00;99054.45;1690817;83;25396;-42
2023/01/19 02:14:54;;;;;;;77.60;69.80;;;;;;;1.45;100.00;99062.99;1711631;83;25378;-42
2023/01/19 02:17:22;;;;;;;64.82;55.75;;;;;;;1.42;100.00;99060.09;1711514;83;25459;-41
2023/01/19 02:19:48;;;;;;;99.92;90.32;;;;;;;1.40;100.00;99059.58;1711500;83;25809;-41
2023/01/19 02:22:26;;;;;;;98.33;89.13;;;;;;;1.36;100.00;99053.98;1711552;83;25408;-40
2023/01/19 02:24:54;;;;;;;100.15;90.10;;;;;;;1.36;100.00;99051.87;1711590;83;28029;-42
2023/01/19 02:27:22;;;;;;;99.85;90.57;;;;;;;1.35;100.00;99051.62;1682130;83;25739;-40
2023/01/19 02:29:49;;;;;;;106.78;96.37;;;;;;;1.33;100.00;99051.90;1711517;83;25521;-43
2023/01/19 02:32:15;;;;;;;98.72;89.25;;;;;;;1.32;100.00;99041.52;1711556;83;25611;-40
2023/01/19 02:34:41;;;;;;;99.13;89.58;;;;;;;1.32;100.00;99047.63;1711760;83;25463;-40
2023/01/19 02:37:12;;;;;;;98.82;89.35;;;;;;;1.32;100.00;99039.64;1711607;83;27335;-41
2023/01/19 02:39:44;;;;;;;98.00;88.95;;;;;;;1.33;100.00;99047.09;1711628;83;25626;-44
2023/01/19 02:42:30;;;;;;;99.90;90.20;;;;;;;1.34;100.00;99043.36;1711704;83;25403;-42
2023/01/19 02:44:58;;;;;;;101.17;91.23;;;;;;;1.34;100.00;99042.81;1711647;83;25583;-42
2023/01/19 02:47:24;;;;;;;103.40;93.37;;;;;;;1.35;100.00;99050.30;1711681;83;25603;-41
2023/01/19 02:50:01;;;;;;;100.30;90.32;;;;;;;1.34;100.00;99050.81;1711855;83;27337;-40
2023/01/19 02:52:30;;;;;;;101.78;91.57;;;;;;;1.35;100.00;99056.95;1711541;83;25601;-41
2023/01/19 02:55:17;;;;;;;69.07;62.53;;;;;;;1.35;100.00;99048.41;1711674;83;25503;-40
2023/01/19 02:58:04;;;;;;;100.15;90.60;;;;;;;1.36;100.00;99039.88;1710941;83;27976;-40
2023/01/19 03:01:19;;;;;;;103.60;93.47;;;;;;;1.36;100.00;99034.55;1710427;83;25442;-42
2023/01/19 03:04:15;;;;;;;98.00;88.65;;;;;;;1.35;100.00;99044.42;1711460;83;27359;-43
2023/01/19 03:07:31;;;;;;;111.00;100.10;;;;;;;1.36;100.00;99043.33;1711606;83;25613;-42
2023/01/19 03:10:12;;;;;;;99.60;89.83;;;;;;;1.35;100.00;99044.97;1686995;83;25592;-40
2023/01/19 03:12:53;;;;;;;98.33;88.75;;;;;;;1.35;100.00;99043.63;1709262;83;25632;-44
2023/01/19 03:15:26;;;;;;;102.65;92.65;;;;;;;1.34;100.00;99040.16;1711561;83;25660;-41
2023/01/19 03:17:53;;;;;;;100.12;90.40;;;;;;;1.34;100.00;99036.16;1711522;83;27428;-41
2023/01/19 03:20:23;;;;;;;103.55;93.55;;;;;;;1.36;100.00;99043.88;1682133;83;25874;-42
2023/01/19 03:22:55;;;;;;;100.15;90.35;;;;;;;1.36;100.00;99045.99;1711514;83;25614;-43
2023/01/19 03:25:24;;;;;;;103.55;92.92;;;;;;;1.38;100.00;99048.37;1711478;83;25654;-42
2023/01/19 03:27:53;;;;;;;103.22;92.82;;;;;;;1.38;100.00;99053.71;1711741;83;25548;-42
2023/01/19 03:30:25;;;;;;;72.85;65.67;;;;;;;1.38;100.00;99058.52;1711618;83;27887;-42
2023/01/19 03:32:59;;;;;;;99.92;90.32;;;;;;;1.39;100.00;99070.75;1711116;83;25678;-43
2023/01/19 03:35:31;;;;;;;101.72;91.60;;;;;;;1.39;100.00;99072.09;1710554;83;25560;-42
2023/01/19 03:37:59;;;;;;;102.97;92.47;;;;;;;1.39;100.00;99078.75;1682181;83;25793;-41
2023/01/19 03:40:29;;;;;;;102.40;92.45;;;;;;;1.38;100.00;99074.51;1687394;83;25626;-41
2023/01/19 03:42:56;;;;;;;101.90;91.55;;;;;;;1.39;100.00;99076.09;1711589;83;27447;-41
2023/01/19 03:45:23;;;;;;;102.58;92.57;;;;;;;1.40;100.00;99075.02;1711485;83;25650;-42
2023/01/19 03:47:50;;;;;;;103.72;93.25;;;;;;;1.41;100.00;99075.81;1718083;83;25472;-40
2023/01/19 03:50:28;;;;;;;100.47;90.67;;;;;;;1.40;100.00;99081.69;1727011;83;25686;-41
2023/01/19 03:53:10;;;;;;;99.10;89.55;;;;;;;1.41;100.00;99081.14;1727145;83;25421;-41
2023/01/19 03:55:47;;;;;;;97.97;88.95;;;;;;;1.40;100.00;99085.68;1727004;83;27290;-42
2023/01/19 03:58:13;;;;;;;98.12;88.78;;;;;;;1.41;100.00;99093.13;1726831;83;25568;-43
2023/01/19 04:00:40;;;;;;;100.85;90.72;;;;;;;1.41;100.00;99097.12;1726994;83;25463;-42
2023/01/19 04:03:13;;;;;;;103.25;92.82;;;;;;;1.39;100.00;99097.40;1726901;83;25624;-42
2023/01/19 04:05:40;;;;;;;98.80;88.82;;;;;;;1.40;100.00;99104.88;1726965;83;25445;-42
2023/01/19 04:08:07;;;;;;;101.30;90.92;;;;;;;1.40;100.00;99108.33;1726882;83;27324;-40
2023/01/19 04:10:33;;;;;;;101.45;91.67;;;;;;;1.40;100.00;99105.66;1726805;83;25566;-42
2023/01/19 04:13:01;;;;;;;101.80;91.70;;;;;;;1.41;100.00;99111.78;1694718;83;25430;-43
2023/01/19 04:15:29;;;;;;;103.87;93.35;;;;;;;1.40;100.00;99112.33;1726868;83;26296;-40
2023/01/19 04:18:00;;;;;;;102.30;92.12;;;;;;;1.41;100.00;99122.44;1726922;83;25636;-44
2023/01/19 04:20:27;;;;;;;103.87;93.07;;;;;;;1.40;100.00;99126.98;1726908;83;27310;-43
2023/01/19 04:22:59;;;;;;;100.80;90.75;;;;;;;1.42;100.00;99138.16;1726810;83;25619;-42
2023/01/19 04:25:27;;;;;;;105.75;94.85;;;;;;;1.42;100.00;99121.38;1726929;83;25639;-40
2023/01/19 04:27:54;;;;;;;106.85;96.17;;;;;;;1.41;100.00;99119.77;1726856;83;26236;-41
2023/01/19 04:30:21;;;;;;;105.55;94.77;;;;;;;1.41;100.00;99128.55;1694964;83;25468;-42
2023/01/19 04:32:48;;;;;;;103.97;93.52;;;;;;;1.43;100.00;99124.28;1694827;83;28073;-42
2023/01/19 04:35:15;;;;;;;102.27;91.90;;;;;;;1.44;100.00;99133.89;1726747;83;25576;-41
2023/01/19 04:37:43;;;;;;;100.80;91.08;;;;;;;1.42;100.00;99136.83;1726861;83;25553;-44
2023/01/19 04:40:11;;;;;;;105.43;95.15;;;;;;;1.43;100.00;99133.09;1726897;83;25616;-42
2023/01/19 04:42:38;;;;;;;101.30;90.87;;;;;;;1.44;100.00;99136.55;1726912;83;25613;-42
2023/01/19 04:45:06;;;;;;;101.55;91.47;;;;;;;1.42;100.00;99127.50;1712007;83;27318;-42
2023/01/19 04:47:32;;;;;;;104.30;93.58;;;;;;;1.43;100.00;99138.43;1726754;82;25501;-41
2023/01/19 04:49:58;;;;;;;99.95;89.72;;;;;;;1.42;100.00;99146.70;1726896;83;25448;-42
2023/01/19 04:52:24;;;;;;;101.55;91.53;;;;;;;1.41;100.00;99152.54;1694939;83;25610;-41
2023/01/19 04:54:51;;;;;;;100.05;89.92;;;;;;;1.40;100.00;99157.63;1726952;83;25573;-40
2023/01/19 04:57:18;;;;;;;104.65;93.45;;;;;;;1.38;100.00;99163.77;1694826;83;27316;-43
2023/01/19 04:59:44;;;;;;;101.30;91.15;;;;;;;1.38;100.00;99161.11;1726772;83;25681;-41
2023/01/19 05:02:10;;;;;;;101.47;90.90;;;;;;;1.35;100.00;99156.33;1694629;83;25541;-40
2023/01/19 05:04:36;;;;;;;100.27;89.92;;;;;;;1.35;100.00;99164.86;1726819;83;25622;-42
2023/01/19 05:07:03;;;;;;;104.32;93.65;;;;;;;1.35;100.00;99167.53;1694982;83;25455;-40
2023/01/19 05:09:29;;;;;;;104.67;94.47;;;;;;;1.34;100.00;99166.71;1726850;83;27266;-42
2023/01/19 05:11:55;;;;;;;103.25;93.45;;;;;;;1.32;100.00;99168.86;1726820;83;25589;-41
2023/01/19 05:14:22;;;;;;;101.25;91.50;;;;;;;1.33;100.00;99178.97;1726872;83;25738;-42
2023/01/19 05:16:48;;;;;;;98.45;88.97;;;;;;;1.29;100.00;99180.88;1712115;83;25657;-41
2023/01/19 05:19:14;;;;;;;100.27;90.37;;;;;;;1.28;100.00;99188.59;1726894;83;25756;-41
2023/01/19 05:21:41;;;;;;;100.40;90.40;;;;;;;1.29;100.00;99184.05;1726834;81;27381;-40
2023/01/19 05:24:09;;;;;;;99.15;89.37;;;;;;;1.29;100.00;99180.06;1726863;83;25601;-40
2023/01/19 05:26:35;;;;;;;100.47;91.10;;;;;;;1.27;100.00;99181.66;1724518;83;25456;-42
2023/01/19 05:29:01;;;;;;;99.05;89.87;;;;;;;1.25;100.00;99189.69;1726823;83;25712;-41
2023/01/19 05:31:27;;;;;;;103.38;93.15;;;;;;;1.25;100.00;99183.81;1726855;83;25470;-42
2023/01/19 05:33:53;;;;;;;101.53;91.55;;;;;;;1.26;100.00;99183.27;1694845;83;27235;-41
2023/01/19 05:36:19;;;;;;;98.80;88.95;;;;;;;1.23;100.00;99172.64;1694836;83;25721;-42
2023/01/19 05:38:46;;;;;;;98.22;89.17;;;;;;;1.23;100.00;99178.52;1726794;83;25453;-41
2023/01/19 05:41:13;;;;;;;100.42;90.77;;;;;;;1.23;100.00;99177.17;1726801;83;25612;-41
2023/01/19 05:43:39;;;;;;;99.97;90.47;;;;;;;1.22;100.00;99183.56;1726853;83;25605;-42
2023/01/19 05:46:06;;;;;;;99.00;89.10;;;;;;;1.22;100.00;99184.35;1726829;83;27318;-40
2023/01/19 05:48:32;;;;;;;100.95;91.37;;;;;;;1.21;100.00;99186.77;1726685;83;25610;-41
2023/01/19 05:51:00;;;;;;;98.83;89.70;;;;;;;1.20;100.00;99192.37;1726867;83;25611;-42
2023/01/19 05:53:28;;;;;;;98.90;89.50;;;;;;;1.19;100.00;99186.25;1726970;83;25547;-42
2023/01/19 05:56:01;;;;;;;99.17;89.25;;;;;;;1.18;100.00;99186.53;1726889;83;25568;-43
2023/01/19 05:58:28;;;;;;;101.00;90.95;;;;;;;1.17;100.00;99190.25;1726862;83;27392;-42
2023/01/19 06:00:54;;;;;;;98.00;88.72;;;;;;;1.17;100.00;99192.37;1726797;83;25791;-42
2023/01/19 06:03:21;;;;;;;97.35;88.20;;;;;;;1.16;100.00;99193.45;1726824;83;25582;-41
2023/01/19 06:05:47;;;;;;;96.92;87.45;;;;;;;1.13;100.00;99195.33;1726780;83;25631;-42
2023/01/19 06:08:13;;;;;;;98.47;89.05;;;;;;;1.13;100.00;99193.20;1726868;83;25640;-41
2023/01/19 06:10:39;;;;;;;99.97;90.35;;;;;;;1.12;100.00;99199.05;1726820;83;27320;-42
2023/01/19 06:13:05;;;;;;;98.25;89.03;;;;;;;1.13;100.00;99209.19;1726693;83;25612;-40
2023/01/19 06:15:32;;;;;;;99.47;89.75;;;;;;;1.13;100.00;99210.52;1726791;83;25810;-42
2023/01/19 06:17:58;;;;;;;96.90;87.73;;;;;;;1.12;100.00;99215.03;1694811;83;28949;-42
2023/01/19 06:20:24;;;;;;;101.40;91.22;;;;;;;1.12;100.00;99221.69;1726831;83;25596;-41
2023/01/19 06:22:50;;;;;;;93.67;85.22;;;;;;;1.14;100.00;99233.41;1726855;83;27443;-41
2023/01/19 06:25:17;;;;;;;95.85;86.90;;;;;;;1.11;100.00;99232.09;1726770;83;25568;-41
2023/01/19 06:27:44;;;;;;;98.37;89.00;;;;;;;1.10;100.00;99249.92;1725695;83;25706;-41
2023/01/19 06:30:12;;;;;;;99.60;90.35;;;;;;;1.06;100.00;99248.88;1725715;82;26308;-41
2023/01/19 06:32:38;;;;;;;94.50;85.45;;;;;;;1.08;100.00;99256.06;1726915;83;25456;-41
2023/01/19 06:35:06;;;;;;;95.80;86.78;;;;;;;1.07;100.00;99270.98;1726946;83;27377;-41
2023/01/19 06:37:34;;;;;;;97.30;88.15;;;;;;;1.07;100.00;99277.13;1697814;83;25410;-42
2023/01/19 06:40:01;;;;;;;94.60;85.55;;;;;;;1.08;100.00;99274.70;1727004;83;25617;-41
2023/01/19 06:42:27;;;;;;;95.62;86.82;;;;;;;1.10;100.00;99281.89;1726954;83;26219;-41
2023/01/19 06:44:53;;;;;;;97.72;88.25;;;;;;;1.08;100.00;99284.03;1726947;83;25648;-40
2023/01/19 06:47:20;;;;;;;98.95;89.25;;;;;;;1.09;100.00;99285.64;1695060;83;27291;-41
2023/01/19 06:49:46;;;;;;;97.08;87.78;;;;;;;1.11;100.00;99284.83;1714330;83;25749;-44
2023/01/19 06:52:14;;;;;;;96.37;87.55;;;;;;;1.13;100.00;99283.77;1711539;83;25425;-43
2023/01/19 06:54:42;;;;;;;96.55;87.10;;;;;;;1.14;100.00;99289.34;1711505;83;25932;-42
2023/01/19 06:57:10;;;;;;;96.42;86.80;;;;;;;1.14;100.00;99299.45;1711547;83;25586;-43
2023/01/19 06:59:38;;;;;;;97.05;88.10;;;;;;;1.17;100.00;99307.45;1711800;83;27483;-42
2023/01/19 07:02:06;;;;;;;97.53;88.37;;;;;;;1.17;100.00;99307.45;1711469;83;25584;-44
2023/01/19 07:04:32;;;;;;;98.40;89.07;;;;;;;1.18;100.00;99294.41;1711525;83;25523;-41
2023/01/19 07:07:00;;;;;;;94.62;85.70;;;;;;;1.18;100.00;99293.08;1711535;83;25455;-40
2023/01/19 07:09:26;;;;;;;98.52;88.80;;;;;;;1.17;100.00;99286.14;1711583;83;25637;-41
2023/01/19 07:11:53;;;;;;;96.97;87.85;;;;;;;1.17;100.00;99272.28;1711556;83;27246;-42
2023/01/19 07:14:20;;;;;;;99.95;90.40;;;;;;;1.19;100.00;99268.84;1711464;83;25654;-42
2023/01/19 07:16:46;;;;;;;95.25;86.70;;;;;;;1.22;100.00;99273.59;1711534;83;25471;-41
2023/01/19 07:19:13;;;;;;;96.60;87.17;;;;;;;1.21;100.00;99260.55;1711441;83;25675;-42
2023/01/19 07:21:40;;;;;;;94.70;85.70;;;;;;;1.24;100.00;99258.16;1710441;83;25660;-43
2023/01/19 07:24:06;;;;;;;96.32;87.53;;;;;;;1.26;100.00;99260.02;1710106;83;27321;-41
2023/01/19 07:26:33;;;;;;;98.07;88.72;;;;;;;1.29;100.00;99267.47;1710963;83;25415;-43
2023/01/19 07:28:59;;;;;;;97.75;88.82;;;;;;;1.33;100.00;99278.89;1711449;83;25407;-41
2023/01/19 07:31:25;;;;;;;99.70;90.00;;;;;;;1.35;100.00;99276.23;1711418;83;25635;-43
2023/01/19 07:33:51;;;;;;;95.17;86.17;;;;;;;1.38;100.00;99285.02;1711504;83;25551;-42
2023/01/19 07:36:18;;;;;;;97.15;88.45;;;;;;;1.42;100.00;99284.72;1711506;83;27304;-42
2023/01/19 07:38:45;;;;;;;100.02;89.20;;;;;;;1.45;100.00;99285.52;1711329;83;25557;-41
2023/01/19 07:41:11;;;;;;;98.80;88.87;;;;;;;1.47;100.00;99286.03;1711476;83;25535;-41
2023/01/19 07:43:37;;;;;;;105.85;95.15;;;;;;;1.52;100.00;99287.89;1711220;83;25661;-41
2023/01/19 07:46:07;;;;;;;100.02;90.05;;;;;;;1.55;100.00;99282.53;1686753;83;25623;-41
2023/01/19 07:48:33;;;;;;;98.80;89.10;;;;;;;1.57;100.00;99287.08;1712448;82;27885;-42
2023/01/19 07:51:07;;;;;;;95.25;85.67;;;;;;;1.59;100.00;99288.38;1717324;83;25589;-41
2023/01/19 07:53:33;;;;;;;99.67;89.77;;;;;;;1.60;100.00;99292.66;1717383;83;25456;-43
2023/01/19 07:56:00;;;;;;;97.27;87.57;;;;;;;1.64;100.00;99302.23;1717412;83;25546;-42
2023/01/19 07:58:26;;;;;;;97.92;88.25;;;;;;;1.66;100.00;99309.41;1687949;83;25606;-41
2023/01/19 08:00:53;;;;;;;95.47;86.35;;;;;;;1.66;100.00;99311.53;1717383;83;27393;-42
2023/01/19 08:03:20;;;;;;;101.10;91.63;;;;;;;1.67;100.00;99315.80;1717251;83;25459;-41
2023/01/19 08:05:52;;;;;;;98.37;88.22;;;;;;;1.70;100.00;99326.98;1692518;83;25416;-43
2023/01/19 08:08:19;;;;;;;97.35;88.03;;;;;;;1.70;100.00;99330.45;1717368;83;26503;-41
2023/01/19 08:10:50;;;;;;;95.42;86.50;;;;;;;1.72;100.00;99320.33;1717378;83;25530;-41
2023/01/19 08:13:18;;;;;;;98.52;88.25;;;;;;;1.74;100.00;99308.03;1717379;83;28133;-41
2023/01/19 08:15:44;;;;;;;96.87;87.35;;;;;;;1.74;100.00;99295.52;1687768;83;25616;-41
2023/01/19 08:18:10;;;;;;;93.72;84.90;;;;;;;1.76;100.00;99297.91;1717288;83;25393;-41
2023/01/19 08:20:37;;;;;;;96.35;86.97;;;;;;;1.75;100.00;99293.09;1717323;83;25628;-40
2023/01/19 08:23:04;;;;;;;95.07;86.15;;;;;;;1.76;100.00;99289.91;1717364;83;25420;-41
2023/01/19 08:25:34;;;;;;;97.20;87.47;;;;;;;1.76;100.00;99284.03;1687748;83;27581;-42
2023/01/19 08:28:02;;;;;;;93.85;84.92;;;;;;;1.79;100.00;99279.48;1717268;83;25600;-41
2023/01/19 08:30:29;;;;;;;98.47;88.78;;;;;;;1.80;100.00;99289.06;1717364;83;25660;-42
2023/01/19 08:33:02;;;;;;;94.55;85.80;;;;;;;1.82;100.00;99295.46;1717312;83;26548;-44
2023/01/19 08:35:25;;;;;;;;;;;;;;;1.82;100.00;99282.95;1719197;83;25459;-42
2023/01/19 08:37:51;;;;;;;92.57;84.17;;;;;;;1.83;100.00;99291.73;1717297;83;27460;-42
2023/01/19 08:40:17;;;;;;;95.22;86.10;;;;;;;1.82;100.00;99290.95;1717215;83;25615;-41
2023/01/19 08:42:44;;;;;;;94.28;85.12;;;;;;;1.80;100.00;99295.73;1687927;83;25591;-42
2023/01/19 08:45:11;;;;;;;91.93;83.40;;;;;;;1.81;100.00;99297.34;1717401;83;26988;-42
2023/01/19 08:47:37;;;;;;;93.82;85.12;;;;;;;1.83;100.00;99303.19;1717363;83;25544;-44
2023/01/19 08:50:05;;;;;;;94.13;85.20;;;;;;;1.84;100.00;99298.67;1713593;83;26681;-42
2023/01/19 08:52:31;;;;;;;98.03;88.85;;;;;;;1.85;100.00;99301.58;1711394;83;25644;-42
2023/01/19 08:54:57;;;;;;;94.05;85.47;;;;;;;1.85;100.00;99309.04;1711502;83;25556;-42
2023/01/19 08:57:23;;;;;;;97.85;88.87;;;;;;;1.88;100.00;99306.92;1711366;83;25613;-41
2023/01/19 08:59:49;;;;;;;96.78;88.07;;;;;;;1.88;100.00;99315.70;1711475;83;25443;-42
2023/01/19 09:02:16;;;;;;;96.90;87.95;;;;;;;1.89;100.00;99323.16;1711417;83;29496;-41
2023/01/19 09:04:42;;;;;;;98.40;89.47;;;;;;;1.90;100.00;99318.10;1711451;83;25396;-42
2023/01/19 09:07:08;;;;;;;94.47;85.62;;;;;;;1.92;100.00;99325.28;1711455;83;25651;-42
2023/01/19 09:09:36;;;;;;;97.85;88.40;;;;;;;1.93;100.00;99330.34;1711422;83;25638;-43
2023/01/19 09:12:04;;;;;;;94.80;86.20;;;;;;;1.94;100.00;99318.62;1711538;83;25559;-41
2023/01/19 09:14:30;;;;;;;98.95;89.55;;;;;;;1.98;100.00;99318.31;1711460;83;27433;-43
2023/01/19 09:16:57;;;;;;;94.30;85.55;;;;;;;1.99;100.00;99314.59;1711332;83;25569;-42
2023/01/19 09:19:25;;;;;;;100.50;91.20;;;;;;;1.98;100.00;99313.53;1711407;83;25613;-42
2023/01/19 09:21:54;;;;;;;98.20;88.90;;;;;;;2.02;100.00;99322.56;1711406;83;25619;-43
2023/01/19 09:24:20;;;;;;;69.90;63.57;;;;;;;2.04;100.00;99317.74;1711726;83;25632;-43
2023/01/19 09:26:47;;;;;;;94.52;85.85;;;;;;;2.06;100.00;99322.29;1711441;83;27860;-42
2023/01/19 09:29:13;;;;;;;97.82;88.37;;;;;;;2.08;100.00;99328.14;1711335;83;25565;-43
2023/01/19 09:31:42;;;;;;;97.88;88.40;;;;;;;2.09;100.00;99327.05;1682266;83;25639;-42
2023/01/19 09:34:11;;;;;;;94.20;85.57;;;;;;;2.09;100.00;99331.05;1711346;83;25621;-42
2023/01/19 09:36:38;;;;;;;96.37;87.42;;;;;;;2.10;100.00;99336.66;1711456;83;25777;-42
2023/01/19 09:39:05;;;;;;;94.95;86.25;;;;;;;2.07;100.00;99331.08;1711420;83;27334;-42
2023/01/19 09:41:35;;;;;;;99.15;90.05;;;;;;;2.05;100.00;99331.35;1711303;83;25454;-41
2023/01/19 09:44:02;;;;;;;97.47;88.25;;;;;;;2.03;100.00;99342.84;1711419;83;25383;-42
2023/01/19 09:46:41;;;;;;;97.53;87.95;;;;;;;2.02;100.00;99344.69;1711364;83;25620;-43
2023/01/19 09:49:22;;;;;;;93.82;84.35;;;;;;;2.04;100.00;99331.08;1712020;81;25492;-43
2023/01/19 09:51:50;;;;;;;95.92;86.78;;;;;;;2.00;100.00;99330.05;1717078;83;27340;-42
2023/01/19 09:54:40;;;;;;;94.58;85.67;;;;;;;1.97;100.00;99343.92;1717230;83;25530;-41
2023/01/19 09:57:11;;;;;;;96.32;87.15;;;;;;;1.96;100.00;99347.14;1689035;84;25594;-42
2023/01/19 09:59:38;;;;;;;93.45;84.62;;;;;;;1.98;100.00;99338.87;1689858;84;25623;-40
2023/01/19 10:02:22;;;;;;;95.20;86.10;;;;;;;1.94;100.00;99333.29;1690115;84;25493;-40
2023/01/19 10:05:02;;;;;;;94.65;85.15;;;;;;;1.93;100.00;99326.34;1689968;84;27309;-41
2023/01/19 10:07:43;;;;;;;97.95;88.52;;;;;;;1.91;100.00;99325.83;1690029;84;25442;-44
2023/01/19 10:10:28;;;;;;;97.20;87.92;;;;;;;1.90;100.00;99318.10;1685330;84;25671;-42
2023/01/19 10:13:15;;;;;;;96.70;87.10;;;;;;;1.89;100.00;99308.49;1689998;84;25670;-42
2023/01/19 10:16:19;;;;;;;98.58;88.85;;;;;;;1.89;100.00;99311.98;1689995;84;25451;-43
2023/01/19 10:18:50;;;;;;;97.75;87.97;;;;;;;1.88;100.00;99306.92;1689562;84;27426;-41
2023/01/19 10:21:33;;;;;;;97.15;87.80;;;;;;;1.88;100.00;99310.38;1690026;84;25538;-43
2023/01/19 10:24:14;;;;;;;95.50;86.47;;;;;;;1.89;100.00;99306.65;1689838;84;25428;-41
2023/01/19 10:26:48;;;;;;;95.67;86.50;;;;;;;1.89;100.00;99299.98;1689894;84;27753;-41
2023/01/19 10:29:29;;;;;;;97.50;88.17;;;;;;;1.88;100.00;99298.38;1689426;84;25501;-40
2023/01/19 10:32:21;;;;;;;55.45;24.37;;;;;;;1.92;100.00;99303.95;1691674;83;27430;-42
2023/01/19 10:34:50;;;;;;;54.53;25.55;;;;;;;1.95;100.00;99296.19;1687816;83;26088;-41
2023/01/19 10:37:30;;;;;;;53.05;25.65;;;;;;;2.00;100.00;99288.16;1717581;83;25623;-42
2023/01/19 10:40:10;;;;;;;53.50;26.10;;;;;;;2.05;100.00;99284.13;1717431;83;25551;-42
2023/01/19 10:42:41;;;;;;;53.40;25.72;;;;;;;2.11;100.00;99285.42;1717450;83;25581;-44
2023/01/19 10:45:28;;;;;;;50.92;25.88;;;;;;;2.19;100.00;99280.84;1717469;83;27328;-42
2023/01/19 10:48:01;;;;;;;59.40;27.67;;;;;;;2.27;100.00;99280.25;1717255;83;25531;-42
2023/01/19 10:50:35;;;;;;;48.60;25.62;;;;;;;2.31;100.00;99272.48;1714010;83;25450;-43
2023/01/19 10:53:05;;;;;;;54.05;25.70;;;;;;;2.40;100.00;99277.47;1682494;83;25551;-43
2023/01/19 10:55:38;;;;;;;61.28;31.45;;;;;;;2.47;100.00;99277.97;1711703;83;25601;-42
2023/01/19 10:58:09;;;;;;;52.35;27.10;;;;;;;2.52;100.00;99278.44;1711512;83;27289;-42
2023/01/19 11:00:39;;;;;;;49.67;26.37;;;;;;;2.57;100.00;99274.39;1708539;83;25480;-42
2023/01/19 11:03:27;;;;;;;43.92;23.10;;;;;;;2.63;100.00;99274.62;1711545;83;25625;-41
2023/01/19 11:06:20;;;;;;;52.40;25.33;;;;;;;2.69;100.00;99271.35;1711759;83;26767;-42
2023/01/19 11:08:50;;;;;;;47.08;24.43;;;;;;;2.76;100.00;99273.17;1722897;78;25719;-42
2023/01/19 11:11:19;;;;;;;43.60;23.18;;;;;;;2.77;100.00;99273.41;1754630;81;27333;-42
2023/01/19 11:14:03;;;;;;;48.63;25.72;;;;;;;2.79;100.00;99273.41;1755553;81;27705;-43
2023/01/19 11:16:33;;;;;;;43.05;23.47;;;;;;;2.86;100.00;99289.10;1755616;81;25422;-42
2023/01/19 11:19:02;;;;;;;45.65;23.20;;;;;;;2.88;100.00;99284.27;1756217;81;25635;-41
2023/01/19 11:21:31;;;;;;;45.30;22.80;;;;;;;2.90;100.00;99279.98;1756349;81;25399;-41
2023/01/19 11:24:01;;;;;;;41.63;22.62;;;;;;;2.91;100.00;99284.23;1756575;81;27367;-42
2023/01/19 11:26:47;;;;;;;44.48;23.15;;;;;;;2.92;100.00;99280.48;1756192;81;25441;-44
2023/01/19 11:29:20;;;;;;;43.58;23.65;;;;;;;2.95;100.00;99274.04;1756294;81;25658;-42
2023/01/19 11:31:49;;;;;;;43.28;21.80;;;;;;;2.96;100.00;99268.97;1756231;81;25638;-41
2023/01/19 11:34:36;;;;;;;132.90;80.92;;;;;;;3.00;100.00;99269.19;1756258;81;25559;-43
2023/01/19 11:37:17;;;;;;;46.55;23.98;;;;;;;3.03;100.00;99264.63;1756261;81;27501;-41
2023/01/19 11:39:53;;;;;;;43.02;21.97;;;;;;;3.07;100.00;99257.62;1755840;81;25573;-41
2023/01/19 11:42:20;;;;;;;42.25;23.27;;;;;;;3.13;100.00;99257.83;1756243;81;25405;-42